Centerville, Florida
Current Conditions -  °F | °C
As of 1:53 PM on Thursday 23 Oct 2014 (Local Time) from KTLH Reporting Station
Clear Clear  
Wind Chill: 74°   Ceiling: Unl
Heat Index: 74°   Visibility: 10mi
Dew Point: 40°   Wind: 7mph
Humidity: 29%   Direction: 70°ENE
Pressure: 30.04"   Gusts: NA
Location:  30.5947°N, 84.0417°W
Report Text: KTLH 231753Z 07006KT 10SM CLR 23/04 A3004 RMK AO2 SLP172 T02330044 10239 20061 58025
Loading
Personal Weather Stations






























Interactive Weather Map
Tropical Storm Tracking
New forecast layout! Learn more

10-Day Weather Forecast

Advertisements
Track Severe Weather on mobile